sensor_id;sensor_type;location;lat;lon;timestamp;P1;durP1;ratioP1;P2;durP2;ratioP2
2053;SDS011;1032;52.542;13.440;2023-03-03T00:01:07;27.65;;;17.10;;
2053;SDS011;1032;52.542;13.440;2023-03-03T00:03:34;26.63;;;17.05;;
2053;SDS011;1032;52.542;13.440;2023-03-03T00:06:01;24.13;;;15.50;;
2053;SDS011;1032;52.542;13.440;2023-03-03T00:08:29;22.65;;;15.90;;
2053;SDS011;1032;52.542;13.440;2023-03-03T00:10:57;22.50;;;15.98;;
2053;SDS011;1032;52.542;13.440;2023-03-03T00:13:27;23.63;;;15.95;;
2053;SDS011;1032;52.542;13.440;2023-03-03T00:15:56;23.60;;;16.23;;
2053;SDS011;1032;52.542;13.440;2023-03-03T00:18:41;25.42;;;16.50;;
2053;SDS011;1032;52.542;13.440;2023-03-03T00:21:14;26.77;;;17.85;;
2053;SDS011;1032;52.542;13.440;2023-03-03T00:23:49;28.17;;;16.80;;
2053;SDS011;1032;52.542;13.440;2023-03-03T00:26:19;26.15;;;16.75;;
2053;SDS011;1032;52.542;13.440;2023-03-03T00:28:49;28.38;;;17.08;;
2053;SDS011;1032;52.542;13.440;2023-03-03T00:31:17;29.20;;;16.83;;
2053;SDS011;1032;52.542;13.440;2023-03-03T00:33:46;29.40;;;17.38;;
2053;SDS011;1032;52.542;13.440;2023-03-03T00:36:23;25.88;;;17.50;;
2053;SDS011;1032;52.542;13.440;2023-03-03T00:38:58;25.15;;;16.80;;
2053;SDS011;1032;52.542;13.440;2023-03-03T00:41:38;28.63;;;15.93;;
2053;SDS011;1032;52.542;13.440;2023-03-03T00:44:17;25.38;;;16.25;;
2053;SDS011;1032;52.542;13.440;2023-03-03T00:46:57;28.95;;;18.20;;
2053;SDS011;1032;52.542;13.440;2023-03-03T00:49:36;26.30;;;16.13;;
2053;SDS011;1032;52.542;13.440;2023-03-03T00:52:08;23.20;;;16.00;;
2053;SDS011;1032;52.542;13.440;2023-03-03T00:54:38;28.23;;;16.90;;
2053;SDS011;1032;52.542;13.440;2023-03-03T00:57:06;25.50;;;16.98;;
2053;SDS011;1032;52.542;13.440;2023-03-03T00:59:34;26.38;;;16.88;;
2053;SDS011;1032;52.542;13.440;2023-03-03T01:02:01;26.60;;;15.32;;
2053;SDS011;1032;52.542;13.440;2023-03-03T01:04:27;28.75;;;16.40;;
2053;SDS011;1032;52.542;13.440;2023-03-03T01:06:54;25.88;;;16.80;;
2053;SDS011;1032;52.542;13.440;2023-03-03T01:09:21;23.30;;;15.32;;
2053;SDS011;1032;52.542;13.440;2023-03-03T01:11:48;24.70;;;16.80;;
2053;SDS011;1032;52.542;13.440;2023-03-03T01:14:16;23.50;;;14.70;;
2053;SDS011;1032;52.542;13.440;2023-03-03T01:16:43;26.42;;;17.35;;
2053;SDS011;1032;52.542;13.440;2023-03-03T01:19:10;25.20;;;18.27;;
2053;SDS011;1032;52.542;13.440;2023-03-03T01:21:37;26.20;;;16.50;;
2053;SDS011;1032;52.542;13.440;2023-03-03T01:24:04;27.05;;;15.93;;
2053;SDS011;1032;52.542;13.440;2023-03-03T01:26:31;34.25;;;18.77;;
2053;SDS011;1032;52.542;13.440;2023-03-03T01:28:57;31.95;;;17.90;;
2053;SDS011;1032;52.542;13.440;2023-03-03T01:31:25;29.52;;;19.60;;
2053;SDS011;1032;52.542;13.440;2023-03-03T01:33:52;28.90;;;17.73;;
2053;SDS011;1032;52.542;13.440;2023-03-03T01:36:21;29.95;;;18.73;;
2053;SDS011;1032;52.542;13.440;2023-03-03T01:38:48;32.40;;;18.63;;
2053;SDS011;1032;52.542;13.440;2023-03-03T01:41:15;27.52;;;17.38;;
2053;SDS011;1032;52.542;13.440;2023-03-03T01:43:44;31.92;;;19.48;;
2053;SDS011;1032;52.542;13.440;2023-03-03T01:46:29;30.15;;;18.40;;
2053;SDS011;1032;52.542;13.440;2023-03-03T01:49:02;30.77;;;17.63;;
2053;SDS011;1032;52.542;13.440;2023-03-03T01:51:32;30.45;;;16.95;;
2053;SDS011;1032;52.542;13.440;2023-03-03T01:54:04;27.17;;;16.80;;
2053;SDS011;1032;52.542;13.440;2023-03-03T01:56:37;28.15;;;18.83;;
2053;SDS011;1032;52.542;13.440;2023-03-03T01:59:04;29.73;;;18.17;;
2053;SDS011;1032;52.542;13.440;2023-03-03T02:01:36;32.67;;;18.20;;
2053;SDS011;1032;52.542;13.440;2023-03-03T02:04:04;26.73;;;18.08;;
2053;SDS011;1032;52.542;13.440;2023-03-03T02:06:32;31.15;;;19.55;;
2053;SDS011;1032;52.542;13.440;2023-03-03T02:09:04;30.27;;;19.33;;
2053;SDS011;1032;52.542;13.440;2023-03-03T02:11:35;34.58;;;20.83;;
2053;SDS011;1032;52.542;13.440;2023-03-03T02:14:03;32.92;;;20.92;;
2053;SDS011;1032;52.542;13.440;2023-03-03T02:16:30;36.80;;;21.00;;
2053;SDS011;1032;52.542;13.440;2023-03-03T02:18:59;35.90;;;22.27;;
2053;SDS011;1032;52.542;13.440;2023-03-03T02:21:26;37.25;;;24.48;;
2053;SDS011;1032;52.542;13.440;2023-03-03T02:23:55;40.40;;;25.52;;
2053;SDS011;1032;52.542;13.440;2023-03-03T02:26:27;36.83;;;23.92;;
2053;SDS011;1032;52.542;13.440;2023-03-03T02:29:01;44.35;;;27.05;;
2053;SDS011;1032;52.542;13.440;2023-03-03T02:31:29;32.80;;;21.80;;
2053;SDS011;1032;52.542;13.440;2023-03-03T02:33:57;28.02;;;19.55;;
2053;SDS011;1032;52.542;13.440;2023-03-03T02:36:26;29.98;;;20.83;;
2053;SDS011;1032;52.542;13.440;2023-03-03T02:38:55;60.05;;;32.85;;
2053;SDS011;1032;52.542;13.440;2023-03-03T02:41:29;44.08;;;31.10;;
2053;SDS011;1032;52.542;13.440;2023-03-03T02:44:02;40.05;;;23.85;;
2053;SDS011;1032;52.542;13.440;2023-03-03T02:46:31;36.03;;;21.38;;
2053;SDS011;1032;52.542;13.440;2023-03-03T02:48:59;51.00;;;26.77;;
2053;SDS011;1032;52.542;13.440;2023-03-03T02:51:26;37.90;;;22.10;;
2053;SDS011;1032;52.542;13.440;2023-03-03T02:53:53;33.08;;;20.77;;
2053;SDS011;1032;52.542;13.440;2023-03-03T02:56:22;36.17;;;20.00;;
2053;SDS011;1032;52.542;13.440;2023-03-03T02:58:50;29.02;;;19.45;;
2053;SDS011;1032;52.542;13.440;2023-03-03T03:01:17;31.70;;;19.80;;
2053;SDS011;1032;52.542;13.440;2023-03-03T03:03:44;28.70;;;19.60;;
2053;SDS011;1032;52.542;13.440;2023-03-03T03:06:15;35.83;;;21.50;;
2053;SDS011;1032;52.542;13.440;2023-03-03T03:08:42;29.58;;;18.25;;
2053;SDS011;1032;52.542;13.440;2023-03-03T03:11:08;29.30;;;19.05;;
2053;SDS011;1032;52.542;13.440;2023-03-03T03:13:36;27.38;;;18.95;;
2053;SDS011;1032;52.542;13.440;2023-03-03T03:16:05;26.15;;;19.27;;
2053;SDS011;1032;52.542;13.440;2023-03-03T03:18:32;28.00;;;18.33;;
2053;SDS011;1032;52.542;13.440;2023-03-03T03:21:09;33.33;;;19.95;;
2053;SDS011;1032;52.542;13.440;2023-03-03T03:23:39;28.00;;;17.52;;
2053;SDS011;1032;52.542;13.440;2023-03-03T03:26:06;32.22;;;20.30;;
2053;SDS011;1032;52.542;13.440;2023-03-03T03:28:33;33.72;;;20.73;;
2053;SDS011;1032;52.542;13.440;2023-03-03T03:31:01;28.30;;;18.75;;
2053;SDS011;1032;52.542;13.440;2023-03-03T03:33:30;33.85;;;20.05;;
2053;SDS011;1032;52.542;13.440;2023-03-03T03:35:58;36.67;;;20.35;;
2053;SDS011;1032;52.542;13.440;2023-03-03T03:38:26;36.15;;;20.50;;
2053;SDS011;1032;52.542;13.440;2023-03-03T03:40:54;40.97;;;24.15;;
2053;SDS011;1032;52.542;13.440;2023-03-03T03:43:21;37.67;;;21.00;;
2053;SDS011;1032;52.542;13.440;2023-03-03T03:45:48;33.10;;;20.40;;
2053;SDS011;1032;52.542;13.440;2023-03-03T03:48:15;32.72;;;19.73;;
2053;SDS011;1032;52.542;13.440;2023-03-03T03:50:45;34.60;;;20.75;;
2053;SDS011;1032;52.542;13.440;2023-03-03T03:53:12;32.30;;;20.63;;
2053;SDS011;1032;52.542;13.440;2023-03-03T03:55:39;28.40;;;17.98;;
2053;SDS011;1032;52.542;13.440;2023-03-03T03:58:06;29.30;;;18.08;;
2053;SDS011;1032;52.542;13.440;2023-03-03T04:00:33;26.05;;;16.23;;
2053;SDS011;1032;52.542;13.440;2023-03-03T04:03:00;25.42;;;16.27;;
2053;SDS011;1032;52.542;13.440;2023-03-03T04:05:27;26.98;;;16.13;;
2053;SDS011;1032;52.542;13.440;2023-03-03T04:07:56;32.05;;;17.85;;
2053;SDS011;1032;52.542;13.440;2023-03-03T04:10:22;27.67;;;18.00;;
2053;SDS011;1032;52.542;13.440;2023-03-03T04:12:49;27.95;;;17.33;;
2053;SDS011;1032;52.542;13.440;2023-03-03T04:15:16;32.35;;;18.27;;
2053;SDS011;1032;52.542;13.440;2023-03-03T04:17:43;27.88;;;17.88;;
2053;SDS011;1032;52.542;13.440;2023-03-03T04:20:10;28.90;;;18.77;;
2053;SDS011;1032;52.542;13.440;2023-03-03T04:22:39;31.05;;;17.52;;
2053;SDS011;1032;52.542;13.440;2023-03-03T04:25:08;30.17;;;18.55;;
2053;SDS011;1032;52.542;13.440;2023-03-03T04:27:39;30.60;;;18.70;;
2053;SDS011;1032;52.542;13.440;2023-03-03T04:30:08;26.30;;;17.25;;
2053;SDS011;1032;52.542;13.440;2023-03-03T04:32:37;29.13;;;18.83;;
2053;SDS011;1032;52.542;13.440;2023-03-03T04:35:06;31.48;;;18.38;;
2053;SDS011;1032;52.542;13.440;2023-03-03T04:37:37;30.60;;;18.55;;
2053;SDS011;1032;52.542;13.440;2023-03-03T04:40:05;29.88;;;18.58;;
2053;SDS011;1032;52.542;13.440;2023-03-03T04:42:35;27.60;;;17.25;;
2053;SDS011;1032;52.542;13.440;2023-03-03T04:45:04;28.52;;;18.70;;
2053;SDS011;1032;52.542;13.440;2023-03-03T04:47:32;29.48;;;18.40;;
2053;SDS011;1032;52.542;13.440;2023-03-03T04:49:59;31.73;;;19.25;;
2053;SDS011;1032;52.542;13.440;2023-03-03T04:52:28;27.45;;;17.70;;
2053;SDS011;1032;52.542;13.440;2023-03-03T04:54:55;32.90;;;16.17;;
2053;SDS011;1032;52.542;13.440;2023-03-03T04:57:25;30.08;;;15.38;;
2053;SDS011;1032;52.542;13.440;2023-03-03T04:59:52;21.45;;;14.45;;
2053;SDS011;1032;52.542;13.440;2023-03-03T05:02:19;25.38;;;15.35;;
2053;SDS011;1032;52.542;13.440;2023-03-03T05:04:46;22.20;;;15.35;;
2053;SDS011;1032;52.542;13.440;2023-03-03T05:07:13;24.52;;;16.02;;
2053;SDS011;1032;52.542;13.440;2023-03-03T05:09:39;20.33;;;14.25;;
2053;SDS011;1032;52.542;13.440;2023-03-03T05:12:06;25.20;;;15.57;;
2053;SDS011;1032;52.542;13.440;2023-03-03T05:14:34;29.55;;;17.42;;
2053;SDS011;1032;52.542;13.440;2023-03-03T05:17:01;26.13;;;17.10;;
2053;SDS011;1032;52.542;13.440;2023-03-03T05:19:28;23.10;;;15.88;;
2053;SDS011;1032;52.542;13.440;2023-03-03T05:21:55;29.08;;;17.45;;
2053;SDS011;1032;52.542;13.440;2023-03-03T05:24:22;26.77;;;17.65;;
2053;SDS011;1032;52.542;13.440;2023-03-03T05:26:49;25.85;;;17.55;;
2053;SDS011;1032;52.542;13.440;2023-03-03T05:29:16;27.30;;;16.63;;
2053;SDS011;1032;52.542;13.440;2023-03-03T05:31:44;26.95;;;16.45;;
2053;SDS011;1032;52.542;13.440;2023-03-03T05:34:10;29.08;;;17.90;;
2053;SDS011;1032;52.542;13.440;2023-03-03T05:36:37;27.98;;;17.77;;
2053;SDS011;1032;52.542;13.440;2023-03-03T05:39:04;27.33;;;17.77;;
2053;SDS011;1032;52.542;13.440;2023-03-03T05:41:30;32.38;;;19.48;;
2053;SDS011;1032;52.542;13.440;2023-03-03T05:44:00;33.83;;;17.63;;
2053;SDS011;1032;52.542;13.440;2023-03-03T05:46:27;30.00;;;18.63;;
2053;SDS011;1032;52.542;13.440;2023-03-03T05:48:55;22.13;;;14.82;;
2053;SDS011;1032;52.542;13.440;2023-03-03T05:51:22;25.10;;;15.70;;
2053;SDS011;1032;52.542;13.440;2023-03-03T05:53:49;29.05;;;18.52;;
2053;SDS011;1032;52.542;13.440;2023-03-03T05:56:15;30.05;;;16.35;;
2053;SDS011;1032;52.542;13.440;2023-03-03T05:58:42;24.92;;;16.27;;
2053;SDS011;1032;52.542;13.440;2023-03-03T06:01:09;28.83;;;17.17;;
2053;SDS011;1032;52.542;13.440;2023-03-03T06:03:35;28.35;;;16.20;;
2053;SDS011;1032;52.542;13.440;2023-03-03T06:06:04;30.38;;;17.98;;
2053;SDS011;1032;52.542;13.440;2023-03-03T06:08:31;26.17;;;17.50;;
2053;SDS011;1032;52.542;13.440;2023-03-03T06:10:57;24.42;;;14.60;;
2053;SDS011;1032;52.542;13.440;2023-03-03T06:13:24;24.77;;;16.27;;
2053;SDS011;1032;52.542;13.440;2023-03-03T06:15:51;20.23;;;13.25;;
2053;SDS011;1032;52.542;13.440;2023-03-03T06:18:17;23.58;;;13.82;;
2053;SDS011;1032;52.542;13.440;2023-03-03T06:20:44;29.50;;;14.25;;
2053;SDS011;1032;52.542;13.440;2023-03-03T06:23:17;26.60;;;16.02;;
2053;SDS011;1032;52.542;13.440;2023-03-03T06:25:43;22.67;;;14.35;;
2053;SDS011;1032;52.542;13.440;2023-03-03T06:28:10;22.50;;;13.75;;
2053;SDS011;1032;52.542;13.440;2023-03-03T06:30:37;29.88;;;13.40;;
2053;SDS011;1032;52.542;13.440;2023-03-03T06:33:04;21.48;;;13.65;;
2053;SDS011;1032;52.542;13.440;2023-03-03T06:35:30;21.67;;;13.35;;
2053;SDS011;1032;52.542;13.440;2023-03-03T06:37:57;24.20;;;15.00;;
2053;SDS011;1032;52.542;13.440;2023-03-03T06:40:25;21.35;;;12.80;;
2053;SDS011;1032;52.542;13.440;2023-03-03T06:42:52;21.05;;;13.82;;
2053;SDS011;1032;52.542;13.440;2023-03-03T06:45:19;24.83;;;14.20;;
2053;SDS011;1032;52.542;13.440;2023-03-03T06:47:46;19.45;;;12.75;;
2053;SDS011;1032;52.542;13.440;2023-03-03T06:50:12;21.42;;;13.98;;
2053;SDS011;1032;52.542;13.440;2023-03-03T06:52:43;17.48;;;11.18;;
2053;SDS011;1032;52.542;13.440;2023-03-03T06:55:11;18.42;;;12.32;;
2053;SDS011;1032;52.542;13.440;2023-03-03T06:57:49;22.08;;;12.85;;
2053;SDS011;1032;52.542;13.440;2023-03-03T07:00:22;30.17;;;18.45;;
2053;SDS011;1032;52.542;13.440;2023-03-03T07:02:52;19.27;;;12.95;;
2053;SDS011;1032;52.542;13.440;2023-03-03T07:05:25;20.92;;;12.88;;
2053;SDS011;1032;52.542;13.440;2023-03-03T07:07:54;30.45;;;14.60;;
2053;SDS011;1032;52.542;13.440;2023-03-03T07:10:22;21.42;;;13.13;;
2053;SDS011;1032;52.542;13.440;2023-03-03T07:12:51;21.88;;;13.13;;
2053;SDS011;1032;52.542;13.440;2023-03-03T07:15:19;23.70;;;13.32;;
2053;SDS011;1032;52.542;13.440;2023-03-03T07:17:49;19.67;;;13.32;;
2053;SDS011;1032;52.542;13.440;2023-03-03T07:20:22;18.05;;;12.38;;
2053;SDS011;1032;52.542;13.440;2023-03-03T07:22:50;22.08;;;13.55;;
2053;SDS011;1032;52.542;13.440;2023-03-03T07:25:18;21.40;;;13.10;;
2053;SDS011;1032;52.542;13.440;2023-03-03T07:27:51;25.38;;;13.98;;
2053;SDS011;1032;52.542;13.440;2023-03-03T07:30:23;21.75;;;14.10;;
2053;SDS011;1032;52.542;13.440;2023-03-03T07:32:52;20.83;;;13.38;;
2053;SDS011;1032;52.542;13.440;2023-03-03T07:35:28;25.48;;;14.70;;
2053;SDS011;1032;52.542;13.440;2023-03-03T07:38:00;26.40;;;15.20;;
2053;SDS011;1032;52.542;13.440;2023-03-03T07:40:30;26.30;;;15.13;;
2053;SDS011;1032;52.542;13.440;2023-03-03T07:43:11;24.27;;;14.38;;
2053;SDS011;1032;52.542;13.440;2023-03-03T07:45:51;24.88;;;13.60;;
2053;SDS011;1032;52.542;13.440;2023-03-03T07:48:29;23.55;;;13.88;;
2053;SDS011;1032;52.542;13.440;2023-03-03T07:51:01;26.08;;;14.55;;
2053;SDS011;1032;52.542;13.440;2023-03-03T07:53:30;23.85;;;13.38;;
2053;SDS011;1032;52.542;13.440;2023-03-03T07:56:01;26.25;;;13.05;;
2053;SDS011;1032;52.542;13.440;2023-03-03T07:58:36;23.50;;;11.98;;
2053;SDS011;1032;52.542;13.440;2023-03-03T08:03:54;21.88;;;12.55;;
2053;SDS011;1032;52.542;13.440;2023-03-03T08:06:39;22.08;;;13.23;;
2053;SDS011;1032;52.542;13.440;2023-03-03T08:09:21;24.00;;;13.52;;
2053;SDS011;1032;52.542;13.440;2023-03-03T08:11:52;32.70;;;13.93;;
2053;SDS011;1032;52.542;13.440;2023-03-03T08:14:25;28.30;;;13.23;;
2053;SDS011;1032;52.542;13.440;2023-03-03T08:16:54;30.98;;;15.88;;
2053;SDS011;1032;52.542;13.440;2023-03-03T08:19:23;32.72;;;16.73;;
2053;SDS011;1032;52.542;13.440;2023-03-03T08:21:50;35.15;;;16.70;;
2053;SDS011;1032;52.542;13.440;2023-03-03T08:24:17;31.10;;;17.05;;
2053;SDS011;1032;52.542;13.440;2023-03-03T08:26:44;23.23;;;13.63;;
2053;SDS011;1032;52.542;13.440;2023-03-03T08:29:11;25.27;;;14.93;;
2053;SDS011;1032;52.542;13.440;2023-03-03T08:31:39;21.17;;;13.77;;
2053;SDS011;1032;52.542;13.440;2023-03-03T08:34:05;28.25;;;17.45;;
2053;SDS011;1032;52.542;13.440;2023-03-03T08:36:32;28.73;;;14.85;;
2053;SDS011;1032;52.542;13.440;2023-03-03T08:38:59;32.55;;;17.10;;
2053;SDS011;1032;52.542;13.440;2023-03-03T08:41:25;33.80;;;19.90;;
2053;SDS011;1032;52.542;13.440;2023-03-03T08:43:52;41.03;;;22.05;;
2053;SDS011;1032;52.542;13.440;2023-03-03T08:46:19;41.92;;;23.10;;
2053;SDS011;1032;52.542;13.440;2023-03-03T08:48:47;30.42;;;18.92;;
2053;SDS011;1032;52.542;13.440;2023-03-03T08:51:15;22.10;;;13.95;;
2053;SDS011;1032;52.542;13.440;2023-03-03T08:53:41;15.43;;;9.27;;
2053;SDS011;1032;52.542;13.440;2023-03-03T08:56:08;13.52;;;8.75;;
2053;SDS011;1032;52.542;13.440;2023-03-03T08:58:35;17.88;;;8.68;;
2053;SDS011;1032;52.542;13.440;2023-03-03T09:01:02;20.48;;;11.48;;
2053;SDS011;1032;52.542;13.440;2023-03-03T09:03:29;19.80;;;10.07;;
2053;SDS011;1032;52.542;13.440;2023-03-03T09:05:57;15.95;;;9.32;;
2053;SDS011;1032;52.542;13.440;2023-03-03T09:08:24;15.35;;;9.43;;
2053;SDS011;1032;52.542;13.440;2023-03-03T09:10:51;15.55;;;10.02;;
2053;SDS011;1032;52.542;13.440;2023-03-03T09:13:18;32.25;;;14.15;;
2053;SDS011;1032;52.542;13.440;2023-03-03T09:15:45;27.50;;;15.50;;
2053;SDS011;1032;52.542;13.440;2023-03-03T09:18:14;27.30;;;16.48;;
2053;SDS011;1032;52.542;13.440;2023-03-03T09:20:42;24.17;;;13.82;;
2053;SDS011;1032;52.542;13.440;2023-03-03T09:23:31;27.05;;;17.17;;
2053;SDS011;1032;52.542;13.440;2023-03-03T09:28:55;29.40;;;22.80;;
2053;SDS011;1032;52.542;13.440;2023-03-03T09:31:27;30.15;;;21.17;;
2053;SDS011;1032;52.542;13.440;2023-03-03T09:34:01;21.65;;;17.02;;
2053;SDS011;1032;52.542;13.440;2023-03-03T09:36:36;28.65;;;18.52;;
2053;SDS011;1032;52.542;13.440;2023-03-03T09:39:10;29.75;;;18.17;;
2053;SDS011;1032;52.542;13.440;2023-03-03T09:41:49;22.55;;;15.80;;
2053;SDS011;1032;52.542;13.440;2023-03-03T09:44:58;26.08;;;19.63;;
2053;SDS011;1032;52.542;13.440;2023-03-03T09:47:46;17.92;;;13.48;;
2053;SDS011;1032;52.542;13.440;2023-03-03T09:50:25;19.67;;;12.82;;
2053;SDS011;1032;52.542;13.440;2023-03-03T09:53:04;14.43;;;10.95;;
2053;SDS011;1032;52.542;13.440;2023-03-03T09:55:42;14.55;;;10.57;;
2053;SDS011;1032;52.542;13.440;2023-03-03T09:58:21;18.00;;;9.40;;
2053;SDS011;1032;52.542;13.440;2023-03-03T10:01:14;23.27;;;15.48;;
2053;SDS011;1032;52.542;13.440;2023-03-03T10:07:05;32.58;;;22.50;;
2053;SDS011;1032;52.542;13.440;2023-03-03T10:09:48;32.03;;;19.17;;
2053;SDS011;1032;52.542;13.440;2023-03-03T10:12:39;36.70;;;22.42;;
2053;SDS011;1032;52.542;13.440;2023-03-03T10:15:17;32.80;;;21.00;;
2053;SDS011;1032;52.542;13.440;2023-03-03T10:17:52;34.78;;;23.83;;
2053;SDS011;1032;52.542;13.440;2023-03-03T10:20:35;30.92;;;20.83;;
2053;SDS011;1032;52.542;13.440;2023-03-03T10:23:18;25.60;;;18.30;;
2053;SDS011;1032;52.542;13.440;2023-03-03T10:25:52;32.60;;;20.65;;
2053;SDS011;1032;52.542;13.440;2023-03-03T10:31:28;36.03;;;19.55;;
2053;SDS011;1032;52.542;13.440;2023-03-03T10:34:04;42.85;;;22.90;;
2053;SDS011;1032;52.542;13.440;2023-03-03T10:36:39;38.45;;;23.05;;
2053;SDS011;1032;52.542;13.440;2023-03-03T10:39:18;33.83;;;23.88;;
2053;SDS011;1032;52.542;13.440;2023-03-03T10:42:01;35.97;;;20.73;;
2053;SDS011;1032;52.542;13.440;2023-03-03T10:44:51;42.40;;;28.40;;
2053;SDS011;1032;52.542;13.440;2023-03-03T10:47:33;48.23;;;26.83;;
2053;SDS011;1032;52.542;13.440;2023-03-03T10:50:20;43.00;;;28.70;;
2053;SDS011;1032;52.542;13.440;2023-03-03T10:52:53;43.50;;;27.37;;
2053;SDS011;1032;52.542;13.440;2023-03-03T10:55:40;37.77;;;26.40;;
2053;SDS011;1032;52.542;13.440;2023-03-03T10:58:26;31.80;;;20.87;;
2053;SDS011;1032;52.542;13.440;2023-03-03T11:01:12;31.70;;;21.77;;
2053;SDS011;1032;52.542;13.440;2023-03-03T11:03:57;30.33;;;19.70;;
2053;SDS011;1032;52.542;13.440;2023-03-03T11:06:39;21.38;;;15.45;;
2053;SDS011;1032;52.542;13.440;2023-03-03T11:09:20;25.67;;;15.85;;
2053;SDS011;1032;52.542;13.440;2023-03-03T11:12:02;24.00;;;15.70;;
2053;SDS011;1032;52.542;13.440;2023-03-03T11:14:44;31.65;;;18.35;;
2053;SDS011;1032;52.542;13.440;2023-03-03T11:17:19;33.53;;;20.52;;
2053;SDS011;1032;52.542;13.440;2023-03-03T11:19:55;23.87;;;15.63;;
2053;SDS011;1032;52.542;13.440;2023-03-03T11:22:31;30.50;;;16.87;;
2053;SDS011;1032;52.542;13.440;2023-03-03T11:25:13;23.30;;;16.83;;
2053;SDS011;1032;52.542;13.440;2023-03-03T11:27:57;19.25;;;14.00;;
2053;SDS011;1032;52.542;13.440;2023-03-03T11:30:39;27.65;;;15.52;;
2053;SDS011;1032;52.542;13.440;2023-03-03T11:33:18;25.37;;;15.50;;
2053;SDS011;1032;52.542;13.440;2023-03-03T11:35:49;21.45;;;12.13;;
2053;SDS011;1032;52.542;13.440;2023-03-03T11:38:29;20.67;;;13.47;;
2053;SDS011;1032;52.542;13.440;2023-03-03T11:41:03;22.13;;;14.80;;
2053;SDS011;1032;52.542;13.440;2023-03-03T11:43:40;25.90;;;15.63;;
2053;SDS011;1032;52.542;13.440;2023-03-03T11:46:12;22.27;;;14.65;;
2053;SDS011;1032;52.542;13.440;2023-03-03T11:48:45;27.02;;;17.42;;
2053;SDS011;1032;52.542;13.440;2023-03-03T11:51:19;24.17;;;15.90;;
2053;SDS011;1032;52.542;13.440;2023-03-03T11:53:58;28.30;;;17.17;;
2053;SDS011;1032;52.542;13.440;2023-03-03T11:56:32;26.33;;;14.70;;
2053;SDS011;1032;52.542;13.440;2023-03-03T11:59:04;30.80;;;16.55;;
2053;SDS011;1032;52.542;13.440;2023-03-03T12:01:41;27.03;;;16.40;;
2053;SDS011;1032;52.542;13.440;2023-03-03T12:04:17;28.57;;;17.80;;
2053;SDS011;1032;52.542;13.440;2023-03-03T12:06:52;24.83;;;15.83;;
2053;SDS011;1032;52.542;13.440;2023-03-03T12:09:33;31.83;;;19.70;;
2053;SDS011;1032;52.542;13.440;2023-03-03T12:12:11;33.77;;;20.50;;
2053;SDS011;1032;52.542;13.440;2023-03-03T12:14:53;27.90;;;17.50;;
2053;SDS011;1032;52.542;13.440;2023-03-03T12:17:31;25.13;;;14.80;;
2053;SDS011;1032;52.542;13.440;2023-03-03T12:20:19;22.30;;;14.30;;
2053;SDS011;1032;52.542;13.440;2023-03-03T12:22:59;30.43;;;17.80;;
2053;SDS011;1032;52.542;13.440;2023-03-03T12:25:36;41.60;;;26.73;;
2053;SDS011;1032;52.542;13.440;2023-03-03T12:28:08;35.50;;;24.77;;
2053;SDS011;1032;52.542;13.440;2023-03-03T12:30:51;41.17;;;29.13;;
2053;SDS011;1032;52.542;13.440;2023-03-03T12:33:31;42.90;;;28.03;;
2053;SDS011;1032;52.542;13.440;2023-03-03T12:36:21;45.47;;;27.73;;
2053;SDS011;1032;52.542;13.440;2023-03-03T12:38:59;37.27;;;24.80;;
2053;SDS011;1032;52.542;13.440;2023-03-03T12:41:31;36.77;;;24.73;;
2053;SDS011;1032;52.542;13.440;2023-03-03T12:44:04;45.23;;;28.70;;
2053;SDS011;1032;52.542;13.440;2023-03-03T12:46:39;50.57;;;32.70;;
2053;SDS011;1032;52.542;13.440;2023-03-03T12:49:11;33.80;;;22.47;;
2053;SDS011;1032;52.542;13.440;2023-03-03T12:52:01;56.63;;;25.10;;
2053;SDS011;1032;52.542;13.440;2023-03-03T12:54:38;33.37;;;23.60;;
2053;SDS011;1032;52.542;13.440;2023-03-03T12:57:18;34.13;;;22.50;;
2053;SDS011;1032;52.542;13.440;2023-03-03T12:59:53;33.40;;;20.73;;
2053;SDS011;1032;52.542;13.440;2023-03-03T13:02:40;33.43;;;19.73;;
2053;SDS011;1032;52.542;13.440;2023-03-03T13:05:18;35.97;;;23.20;;
2053;SDS011;1032;52.542;13.440;2023-03-03T13:07:51;37.17;;;23.23;;
2053;SDS011;1032;52.542;13.440;2023-03-03T13:10:26;24.90;;;17.33;;
2053;SDS011;1032;52.542;13.440;2023-03-03T13:13:00;23.43;;;15.90;;
2053;SDS011;1032;52.542;13.440;2023-03-03T13:15:34;22.90;;;15.07;;
2053;SDS011;1032;52.542;13.440;2023-03-03T13:18:17;26.80;;;17.42;;
2053;SDS011;1032;52.542;13.440;2023-03-03T13:20:53;24.70;;;17.27;;
2053;SDS011;1032;52.542;13.440;2023-03-03T13:23:30;30.17;;;16.20;;
2053;SDS011;1032;52.542;13.440;2023-03-03T13:26:14;24.30;;;15.37;;
2053;SDS011;1032;52.542;13.440;2023-03-03T13:28:49;28.33;;;15.70;;
2053;SDS011;1032;52.542;13.440;2023-03-03T13:31:25;25.60;;;14.50;;
2053;SDS011;1032;52.542;13.440;2023-03-03T13:33:58;23.23;;;14.70;;
2053;SDS011;1032;52.542;13.440;2023-03-03T13:36:27;30.20;;;15.50;;
2053;SDS011;1032;52.542;13.440;2023-03-03T13:39:01;25.67;;;15.43;;
2053;SDS011;1032;52.542;13.440;2023-03-03T13:41:38;25.57;;;16.17;;
2053;SDS011;1032;52.542;13.440;2023-03-03T13:44:14;27.03;;;17.30;;
2053;SDS011;1032;52.542;13.440;2023-03-03T13:46:46;29.67;;;16.23;;
2053;SDS011;1032;52.542;13.440;2023-03-03T13:49:28;25.50;;;16.67;;
2053;SDS011;1032;52.542;13.440;2023-03-03T13:52:03;27.00;;;16.70;;
2053;SDS011;1032;52.542;13.440;2023-03-03T13:54:42;25.90;;;16.33;;
2053;SDS011;1032;52.542;13.440;2023-03-03T13:57:18;24.77;;;17.57;;
2053;SDS011;1032;52.542;13.440;2023-03-03T13:59:57;27.17;;;19.27;;
2053;SDS011;1032;52.542;13.440;2023-03-03T14:02:50;31.90;;;19.33;;
2053;SDS011;1032;52.542;13.440;2023-03-03T14:05:29;27.20;;;18.43;;
2053;SDS011;1032;52.542;13.440;2023-03-03T14:08:03;35.00;;;20.90;;
2053;SDS011;1032;52.542;13.440;2023-03-03T14:10:40;29.60;;;18.00;;
2053;SDS011;1032;52.542;13.440;2023-03-03T14:13:13;30.87;;;22.00;;
2053;SDS011;1032;52.542;13.440;2023-03-03T14:15:47;27.10;;;20.60;;
2053;SDS011;1032;52.542;13.440;2023-03-03T14:18:28;29.90;;;20.00;;
2053;SDS011;1032;52.542;13.440;2023-03-03T14:20:59;24.57;;;18.97;;
2053;SDS011;1032;52.542;13.440;2023-03-03T14:23:33;37.57;;;25.93;;
2053;SDS011;1032;52.542;13.440;2023-03-03T14:26:12;43.10;;;26.33;;
2053;SDS011;1032;52.542;13.440;2023-03-03T14:28:40;27.63;;;17.90;;
2053;SDS011;1032;52.542;13.440;2023-03-03T14:31:16;23.90;;;17.03;;
2053;SDS011;1032;52.542;13.440;2023-03-03T14:33:55;26.17;;;18.10;;
2053;SDS011;1032;52.542;13.440;2023-03-03T14:36:25;32.80;;;17.43;;
2053;SDS011;1032;52.542;13.440;2023-03-03T14:38:54;26.67;;;17.43;;
2053;SDS011;1032;52.542;13.440;2023-03-03T14:41:34;31.90;;;17.80;;
2053;SDS011;1032;52.542;13.440;2023-03-03T14:47:04;25.67;;;16.27;;
2053;SDS011;1032;52.542;13.440;2023-03-03T14:49:42;30.43;;;18.30;;
2053;SDS011;1032;52.542;13.440;2023-03-03T14:52:11;34.60;;;18.60;;
2053;SDS011;1032;52.542;13.440;2023-03-03T14:54:46;20.83;;;14.47;;
2053;SDS011;1032;52.542;13.440;2023-03-03T14:57:16;24.80;;;15.10;;
2053;SDS011;1032;52.542;13.440;2023-03-03T14:59:56;23.37;;;15.70;;
2053;SDS011;1032;52.542;13.440;2023-03-03T15:02:28;22.47;;;16.13;;
2053;SDS011;1032;52.542;13.440;2023-03-03T15:05:16;26.57;;;17.77;;
2053;SDS011;1032;52.542;13.440;2023-03-03T15:07:46;31.10;;;19.53;;
2053;SDS011;1032;52.542;13.440;2023-03-03T15:10:28;32.13;;;20.70;;
2053;SDS011;1032;52.542;13.440;2023-03-03T15:12:58;39.83;;;22.73;;
2053;SDS011;1032;52.542;13.440;2023-03-03T15:15:41;29.20;;;18.40;;
2053;SDS011;1032;52.542;13.440;2023-03-03T15:18:15;36.67;;;24.03;;
2053;SDS011;1032;52.542;13.440;2023-03-03T15:20:42;37.77;;;26.47;;